Time;durP1;ratioP1;P1;durP2;ratioP2;P2;SDS_P1;SDS_P2;PMS_P1;PMS_P2;Temp;Humidity;BMP_temperature;BMP_pressure;BME280_temperature;BME280_humidity;BME280_pressure;Samples;Min_cycle;Max_cycle;Signal;HPM_P1;HPM_P2
2023/11/22 00:00:32;;;;;;;10.73;3.72;;;;;;;;;;5021808;28;20045;-74
2023/11/22 00:03:02;;;;;;;11.88;4.03;;;;;;;;;;5021553;28;20045;-74
2023/11/22 00:05:34;;;;;;;12.77;4.38;;;;;;;;;;5036074;28;20041;-74
2023/11/22 00:08:06;;;;;;;7.05;3.90;;;;;;;;;;5041963;28;20327;-73
2023/11/22 00:10:36;;;;;;;8.65;3.88;;;;;;;;;;5045382;28;20057;-73
2023/11/22 00:13:07;;;;;;;8.40;4.05;;;;;;;;;;5043937;28;20049;-72
2023/11/22 00:15:37;;;;;;;7.88;3.85;;;;;;;;;;5045131;28;20518;-73
2023/11/22 00:18:09;;;;;;;12.90;4.55;;;;;;;;;;5044975;28;20056;-73
2023/11/22 00:20:42;;;;;;;14.80;4.05;;;;;;;;;;5045260;28;20056;-73
2023/11/22 00:23:13;;;;;;;9.88;3.75;;;;;;;;;;5045575;28;20518;-74
2023/11/22 00:25:43;;;;;;;11.40;3.50;;;;;;;;;;5037452;28;20045;-74
2023/11/22 00:28:15;;;;;;;12.38;3.13;;;;;;;;;;5030743;28;20045;-74
2023/11/22 00:30:47;;;;;;;12.63;3.50;;;;;;;;;;5041905;28;20080;-74
2023/11/22 00:33:21;;;;;;;9.07;2.90;;;;;;;;;;5027696;28;20045;-74
2023/11/22 00:35:53;;;;;;;16.15;3.45;;;;;;;;;;5025492;28;20052;-75
2023/11/22 00:38:25;;;;;;;9.30;3.72;;;;;;;;;;5024309;28;20064;-75
2023/11/22 00:40:57;;;;;;;9.40;3.15;;;;;;;;;;5023982;28;20049;-75
2023/11/22 00:43:32;;;;;;;8.02;3.08;;;;;;;;;;5023179;28;20041;-76
2023/11/22 00:46:03;;;;;;;12.43;3.53;;;;;;;;;;5022833;28;20513;-74
2023/11/22 00:48:33;;;;;;;8.35;2.90;;;;;;;;;;5031155;28;20060;-75
2023/11/22 00:51:08;;;;;;;9.75;2.88;;;;;;;;;;5033493;28;20052;-74
2023/11/22 00:53:39;;;;;;;7.15;3.00;;;;;;;;;;5037897;28;20053;-75
2023/11/22 00:56:10;;;;;;;8.02;2.85;;;;;;;;;;5043903;28;20053;-76
2023/11/22 00:58:41;;;;;;;7.80;2.70;;;;;;;;;;5042832;28;20590;-74
2023/11/22 01:01:19;;;;;;;13.80;2.97;;;;;;;;;;5043068;28;20057;-72
2023/11/22 01:03:49;;;;;;;11.50;2.55;;;;;;;;;;5010496;28;20052;-73
2023/11/22 01:06:19;;;;;;;10.93;3.40;;;;;;;;;;5043009;28;20045;-72
2023/11/22 01:08:50;;;;;;;10.43;3.00;;;;;;;;;;5044162;28;20420;-73
2023/11/22 01:11:22;;;;;;;8.25;2.92;;;;;;;;;;5044344;28;20053;-73
2023/11/22 01:13:52;;;;;;;9.95;3.55;;;;;;;;;;5043259;28;20048;-73
2023/11/22 01:16:26;;;;;;;8.20;2.40;;;;;;;;;;5042858;28;20076;-74
2023/11/22 01:18:57;;;;;;;4.72;2.40;;;;;;;;;;5043643;28;20534;-73
2023/11/22 01:21:27;;;;;;;5.45;3.13;;;;;;;;;;5044109;28;20677;-75
2023/11/22 01:23:59;;;;;;;8.85;2.90;;;;;;;;;;5044060;28;20053;-72
2023/11/22 01:26:30;;;;;;;6.70;2.50;;;;;;;;;;5042227;28;20057;-75
2023/11/22 01:29:02;;;;;;;8.77;2.60;;;;;;;;;;5028028;28;20053;-73
2023/11/22 01:31:34;;;;;;;7.72;3.05;;;;;;;;;;5038141;28;20048;-74
2023/11/22 01:34:05;;;;;;;7.53;3.08;;;;;;;;;;5035890;28;20049;-75
2023/11/22 01:36:51;;;;;;;6.72;3.38;;;;;;;;;;5044142;28;20057;-76
2023/11/22 01:39:21;;;;;;;12.80;3.13;;;;;;;;;;5043558;28;20500;-74
2023/11/22 01:41:51;;;;;;;11.77;3.55;;;;;;;;;;5042067;28;20052;-75
2023/11/22 01:44:23;;;;;;;8.38;4.40;;;;;;;;;;5042121;28;20060;-77
2023/11/22 01:46:55;;;;;;;9.05;3.45;;;;;;;;;;5042756;28;20209;-73
2023/11/22 01:49:29;;;;;;;9.00;3.38;;;;;;;;;;5044044;28;20040;-74
2023/11/22 01:52:01;;;;;;;8.80;3.35;;;;;;;;;;5042057;28;20060;-74
2023/11/22 01:54:33;;;;;;;9.32;3.53;;;;;;;;;;5041760;28;20059;-74
2023/11/22 01:57:07;;;;;;;11.02;3.10;;;;;;;;;;5042324;28;20041;-75
2023/11/22 01:59:39;;;;;;;10.52;3.28;;;;;;;;;;5041612;28;20064;-74
2023/11/22 02:02:09;;;;;;;11.93;4.47;;;;;;;;;;5043292;28;20403;-75
2023/11/22 02:04:40;;;;;;;8.85;3.55;;;;;;;;;;5042734;28;20057;-74
2023/11/22 02:07:11;;;;;;;10.05;3.70;;;;;;;;;;5043193;28;20056;-74
2023/11/22 02:09:42;;;;;;;9.75;3.45;;;;;;;;;;5026813;28;20063;-75
2023/11/22 02:12:12;;;;;;;7.47;3.58;;;;;;;;;;5042406;28;20052;-75
2023/11/22 02:14:42;;;;;;;16.67;3.33;;;;;;;;;;5041535;28;20056;-74
2023/11/22 02:17:14;;;;;;;7.00;3.28;;;;;;;;;;5041407;28;20063;-74
2023/11/22 02:19:45;;;;;;;7.25;3.47;;;;;;;;;;5042967;28;20063;-75
2023/11/22 02:22:17;;;;;;;15.25;3.78;;;;;;;;;;5043128;28;20412;-74
2023/11/22 02:24:47;;;;;;;6.22;3.45;;;;;;;;;;5043452;28;20064;-75
2023/11/22 02:27:18;;;;;;;7.15;3.08;;;;;;;;;;5040960;28;20636;-74
2023/11/22 02:29:50;;;;;;;7.53;3.35;;;;;;;;;;5040796;28;20618;-74
2023/11/22 02:32:20;;;;;;;9.88;3.30;;;;;;;;;;5040572;28;20065;-74
2023/11/22 02:34:52;;;;;;;8.75;3.42;;;;;;;;;;5042528;28;20057;-74
2023/11/22 02:37:25;;;;;;;9.85;4.20;;;;;;;;;;5040875;28;20416;-74
2023/11/22 02:40:05;;;;;;;7.65;3.45;;;;;;;;;;5040330;28;20627;-75
2023/11/22 02:42:36;;;;;;;5.75;3.10;;;;;;;;;;5040148;28;20071;-75
2023/11/22 02:45:13;;;;;;;10.23;3.25;;;;;;;;;;5042626;28;20049;-75
2023/11/22 02:47:46;;;;;;;9.05;3.22;;;;;;;;;;5041649;28;20056;-77
2023/11/22 02:50:18;;;;;;;6.70;3.20;;;;;;;;;;5042213;28;20538;-75
2023/11/22 02:52:48;;;;;;;6.38;2.85;;;;;;;;;;5039818;28;20056;-75
2023/11/22 02:55:19;;;;;;;6.40;3.08;;;;;;;;;;5041580;28;20048;-75
2023/11/22 02:57:50;;;;;;;8.32;3.10;;;;;;;;;;5041594;28;20531;-75
2023/11/22 03:00:22;;;;;;;8.38;3.10;;;;;;;;;;5041605;28;20056;-74
2023/11/22 03:02:56;;;;;;;7.07;3.17;;;;;;;;;;5041557;28;20430;-74
2023/11/22 03:05:26;;;;;;;6.43;3.00;;;;;;;;;;5041290;28;20051;-74
2023/11/22 03:07:58;;;;;;;7.78;2.80;;;;;;;;;;5041012;28;20378;-74
2023/11/22 03:10:32;;;;;;;8.80;2.83;;;;;;;;;;5041393;28;20519;-74
2023/11/22 03:13:04;;;;;;;7.05;2.75;;;;;;;;;;5041640;28;20045;-75
2023/11/22 03:15:36;;;;;;;5.43;2.95;;;;;;;;;;5040311;28;20072;-74
2023/11/22 03:18:07;;;;;;;12.20;3.08;;;;;;;;;;5039755;28;20063;-74
2023/11/22 03:20:42;;;;;;;8.30;3.00;;;;;;;;;;5040372;28;20083;-74
2023/11/22 03:23:12;;;;;;;8.32;2.70;;;;;;;;;;5041258;28;20048;-74
2023/11/22 03:25:42;;;;;;;8.30;3.30;;;;;;;;;;5042115;28;20047;-74
2023/11/22 03:28:15;;;;;;;5.55;2.60;;;;;;;;;;5041340;28;20053;-74
2023/11/22 03:30:47;;;;;;;11.98;3.35;;;;;;;;;;5041330;28;20061;-74
2023/11/22 03:33:18;;;;;;;5.90;3.00;;;;;;;;;;5041686;28;20060;-75
2023/11/22 03:35:48;;;;;;;7.10;3.28;;;;;;;;;;5041099;28;20385;-75
2023/11/22 03:38:19;;;;;;;7.22;3.30;;;;;;;;;;4959479;28;2358528;-74
2023/11/22 03:40:49;;;;;;;8.02;2.70;;;;;;;;;;5042059;28;20045;-75
2023/11/22 03:43:20;;;;;;;6.00;3.25;;;;;;;;;;5041653;28;20064;-75
2023/11/22 03:45:53;;;;;;;5.53;2.88;;;;;;;;;;5044642;28;20060;-75
2023/11/22 03:48:26;;;;;;;5.00;2.70;;;;;;;;;;5046275;28;20045;-75
2023/11/22 03:50:57;;;;;;;8.52;3.97;;;;;;;;;;5046032;28;20416;-75
2023/11/22 03:53:27;;;;;;;4.40;2.80;;;;;;;;;;5046155;28;20049;-75
2023/11/22 03:55:58;;;;;;;9.07;3.10;;;;;;;;;;5046393;28;20499;-75
2023/11/22 03:58:29;;;;;;;6.22;3.03;;;;;;;;;;5046060;28;20052;-75
2023/11/22 04:01:02;;;;;;;9.85;3.20;;;;;;;;;;5046364;28;20053;-75
2023/11/22 04:03:32;;;;;;;7.05;3.28;;;;;;;;;;5045948;28;20037;-74
2023/11/22 04:06:04;;;;;;;5.03;3.03;;;;;;;;;;5045264;28;20431;-75
2023/11/22 04:08:35;;;;;;;9.30;2.75;;;;;;;;;;5045369;28;20049;-75
2023/11/22 04:11:05;;;;;;;6.75;3.03;;;;;;;;;;5045354;28;20056;-75
2023/11/22 04:13:36;;;;;;;7.00;3.22;;;;;;;;;;5045550;28;20051;-75
2023/11/22 04:16:12;;;;;;;5.80;2.90;;;;;;;;;;5045359;28;20545;-75
2023/11/22 04:18:44;;;;;;;9.52;3.45;;;;;;;;;;5045231;28;20060;-75
2023/11/22 04:21:14;;;;;;;6.82;3.05;;;;;;;;;;5044932;28;20041;-74
2023/11/22 04:23:45;;;;;;;5.82;3.13;;;;;;;;;;5045268;28;20056;-75
2023/11/22 04:26:16;;;;;;;6.55;2.80;;;;;;;;;;5045322;28;20040;-75
2023/11/22 04:28:47;;;;;;;9.15;3.53;;;;;;;;;;5045403;28;20049;-74
2023/11/22 04:31:17;;;;;;;8.50;3.40;;;;;;;;;;5046229;28;20056;-75
2023/11/22 04:33:48;;;;;;;5.45;3.53;;;;;;;;;;5045560;28;20843;-74
2023/11/22 04:36:20;;;;;;;5.45;3.08;;;;;;;;;;5045548;28;20507;-75
2023/11/22 04:38:54;;;;;;;;;;;;;;;;;;5043568;28;20061;-75
2023/11/22 04:41:25;;;;;;;8.43;3.17;;;;;;;;;;5044503;28;20311;-75
2023/11/22 04:43:55;;;;;;;5.18;3.35;;;;;;;;;;5044981;28;20595;-75
2023/11/22 04:46:26;;;;;;;10.02;3.45;;;;;;;;;;5043912;28;20052;-74
2023/11/22 04:48:57;;;;;;;10.43;3.10;;;;;;;;;;5045123;28;20041;-75
2023/11/22 04:51:29;;;;;;;8.57;3.15;;;;;;;;;;5044480;28;20052;-74
2023/11/22 04:53:59;;;;;;;6.38;3.13;;;;;;;;;;5044466;28;20048;-75
2023/11/22 04:56:30;;;;;;;6.95;3.20;;;;;;;;;;5044048;28;20492;-74
2023/11/22 04:59:01;;;;;;;12.45;3.80;;;;;;;;;;5044700;28;20064;-75
2023/11/22 05:01:34;;;;;;;6.43;3.80;;;;;;;;;;5045156;28;20397;-74
2023/11/22 05:04:05;;;;;;;9.35;3.78;;;;;;;;;;5043364;28;20049;-75
2023/11/22 05:06:36;;;;;;;9.18;3.75;;;;;;;;;;5044541;28;20408;-75
2023/11/22 05:09:09;;;;;;;6.50;3.25;;;;;;;;;;5044395;28;20155;-75
2023/11/22 05:11:41;;;;;;;6.68;2.70;;;;;;;;;;5044220;28;20530;-75
2023/11/22 05:14:13;;;;;;;7.25;3.75;;;;;;;;;;5044739;28;20068;-75
2023/11/22 05:16:44;;;;;;;6.07;3.35;;;;;;;;;;5044088;28;20412;-75
2023/11/22 05:19:14;;;;;;;11.50;3.15;;;;;;;;;;5044586;28;20057;-75
2023/11/22 05:21:45;;;;;;;9.70;4.05;;;;;;;;;;5044729;28;20045;-75
2023/11/22 05:24:15;;;;;;;6.97;2.83;;;;;;;;;;5044509;28;20060;-75
2023/11/22 05:26:46;;;;;;;6.05;2.95;;;;;;;;;;5044121;28;20041;-75
2023/11/22 05:29:16;;;;;;;7.18;3.35;;;;;;;;;;5044756;28;20483;-75
2023/11/22 05:31:47;;;;;;;5.38;3.22;;;;;;;;;;5044138;28;20718;-75
2023/11/22 05:34:17;;;;;;;7.95;3.67;;;;;;;;;;5044127;28;20419;-75
2023/11/22 05:36:48;;;;;;;9.80;3.83;;;;;;;;;;5042622;28;20064;-75
2023/11/22 05:39:22;;;;;;;6.28;3.70;;;;;;;;;;5043879;28;20056;-74
2023/11/22 05:41:53;;;;;;;7.00;3.35;;;;;;;;;;5042246;28;20508;-75
2023/11/22 05:44:25;;;;;;;8.02;3.72;;;;;;;;;;5044543;28;20048;-75
2023/11/22 05:46:56;;;;;;;7.25;3.17;;;;;;;;;;5043880;28;20053;-75
2023/11/22 05:49:28;;;;;;;8.50;3.80;;;;;;;;;;5042500;28;20072;-75
2023/11/22 05:51:58;;;;;;;5.80;3.10;;;;;;;;;;5044223;28;20535;-75
2023/11/22 05:54:29;;;;;;;4.70;2.50;;;;;;;;;;5044438;28;20052;-75
2023/11/22 05:57:00;;;;;;;7.55;3.03;;;;;;;;;;5043729;28;20045;-75
2023/11/22 05:59:31;;;;;;;6.68;3.30;;;;;;;;;;5043879;28;20060;-75
2023/11/22 06:02:01;;;;;;;7.78;3.20;;;;;;;;;;5043753;28;20053;-75
2023/11/22 06:04:31;;;;;;;10.23;3.22;;;;;;;;;;5042109;28;20052;-74
2023/11/22 06:07:01;;;;;;;12.63;3.78;;;;;;;;;;5042133;28;20048;-75
2023/11/22 06:09:32;;;;;;;16.25;3.10;;;;;;;;;;5042999;28;20052;-75
2023/11/22 06:12:03;;;;;;;12.50;3.28;;;;;;;;;;5043301;28;20582;-75
2023/11/22 06:14:33;;;;;;;8.50;3.60;;;;;;;;;;5043273;28;20538;-75
2023/11/22 06:17:03;;;;;;;8.93;3.50;;;;;;;;;;5043266;28;20060;-75
2023/11/22 06:19:34;;;;;;;8.48;2.92;;;;;;;;;;5042712;28;20049;-75
2023/11/22 06:22:06;;;;;;;9.63;3.15;;;;;;;;;;5042795;28;20049;-75
2023/11/22 06:24:37;;;;;;;6.53;3.20;;;;;;;;;;5043460;28;20382;-75
2023/11/22 06:27:07;;;;;;;6.00;3.65;;;;;;;;;;5043491;28;20056;-75
2023/11/22 06:29:38;;;;;;;9.27;3.22;;;;;;;;;;5043066;28;20041;-75
2023/11/22 06:32:09;;;;;;;7.75;3.92;;;;;;;;;;5043035;28;20048;-74
2023/11/22 06:34:40;;;;;;;7.88;3.45;;;;;;;;;;5042505;28;20428;-74
2023/11/22 06:37:10;;;;;;;7.40;3.40;;;;;;;;;;5042515;28;20071;-74
2023/11/22 06:39:40;;;;;;;6.18;3.50;;;;;;;;;;5041707;28;20049;-74
2023/11/22 06:42:13;;;;;;;5.70;3.67;;;;;;;;;;5041097;28;20049;-74
2023/11/22 06:44:44;;;;;;;6.97;3.35;;;;;;;;;;5042660;28;20064;-74
2023/11/22 06:47:15;;;;;;;10.55;3.58;;;;;;;;;;5042591;28;20045;-74
2023/11/22 06:49:46;;;;;;;8.05;4.03;;;;;;;;;;5042488;28;20048;-74
2023/11/22 06:52:17;;;;;;;6.82;3.00;;;;;;;;;;5042491;28;20572;-74
2023/11/22 06:54:49;;;;;;;7.95;4.03;;;;;;;;;;5042658;28;20045;-74
2023/11/22 06:57:28;;;;;;;11.70;3.80;;;;;;;;;;5042437;28;20052;-74
2023/11/22 07:00:00;;;;;;;9.55;3.13;;;;;;;;;;5042575;28;20045;-74
2023/11/22 07:02:37;;;;;;;7.75;3.65;;;;;;;;;;5042334;28;20404;-74
2023/11/22 07:05:08;;;;;;;8.88;3.13;;;;;;;;;;5042546;28;20051;-74
2023/11/22 07:07:40;;;;;;;6.88;3.72;;;;;;;;;;5042804;28;20431;-74
2023/11/22 07:10:11;;;;;;;8.80;3.40;;;;;;;;;;5041031;28;20045;-74
2023/11/22 07:12:43;;;;;;;6.68;3.03;;;;;;;;;;5042354;28;20056;-75
2023/11/22 07:15:14;;;;;;;6.07;3.30;;;;;;;;;;5042254;28;20048;-75
2023/11/22 07:17:45;;;;;;;7.15;3.58;;;;;;;;;;5042153;28;20060;-75
2023/11/22 07:20:17;;;;;;;7.05;4.28;;;;;;;;;;5041857;28;20411;-75
2023/11/22 07:22:54;;;;;;;10.13;3.50;;;;;;;;;;5042370;28;20049;-75
2023/11/22 07:25:25;;;;;;;7.35;3.28;;;;;;;;;;5042560;28;20052;-75
2023/11/22 07:27:56;;;;;;;10.32;3.92;;;;;;;;;;5042299;28;20049;-75
2023/11/22 07:30:30;;;;;;;5.93;3.83;;;;;;;;;;5042476;28;20526;-75
2023/11/22 07:33:00;;;;;;;6.88;3.35;;;;;;;;;;5042119;28;20048;-75
2023/11/22 07:35:31;;;;;;;8.00;3.47;;;;;;;;;;5041962;28;20056;-75
2023/11/22 07:38:03;;;;;;;7.25;3.67;;;;;;;;;;5041550;28;20060;-75
2023/11/22 07:40:34;;;;;;;8.48;4.00;;;;;;;;;;5042099;28;20057;-75
2023/11/22 07:43:05;;;;;;;8.80;3.47;;;;;;;;;;5042053;28;20045;-75
2023/11/22 07:45:37;;;;;;;8.02;3.80;;;;;;;;;;5039783;28;20049;-75
2023/11/22 07:48:11;;;;;;;6.65;3.90;;;;;;;;;;5042391;28;20508;-75
2023/11/22 07:50:43;;;;;;;7.85;4.25;;;;;;;;;;5041309;28;20399;-75
2023/11/22 07:53:17;;;;;;;8.90;4.22;;;;;;;;;;5041849;28;20049;-75
2023/11/22 07:55:48;;;;;;;8.48;5.28;;;;;;;;;;5041868;28;20049;-76
2023/11/22 07:58:20;;;;;;;13.38;4.15;;;;;;;;;;5041318;28;20052;-75
2023/11/22 08:00:51;;;;;;;10.65;4.28;;;;;;;;;;5041380;28;20060;-76
2023/11/22 08:03:25;;;;;;;8.55;4.20;;;;;;;;;;5041603;28;20535;-75
2023/11/22 08:05:56;;;;;;;11.13;4.95;;;;;;;;;;5041894;28;20073;-75
2023/11/22 08:08:27;;;;;;;9.13;4.13;;;;;;;;;;5041737;28;20056;-76
2023/11/22 08:10:57;;;;;;;9.35;4.82;;;;;;;;;;5040378;28;20068;-75
2023/11/22 08:13:28;;;;;;;8.00;4.28;;;;;;;;;;5041383;28;20052;-74
2023/11/22 08:15:59;;;;;;;9.20;4.68;;;;;;;;;;5040285;28;20053;-75
2023/11/22 08:18:30;;;;;;;12.32;4.53;;;;;;;;;;5042065;28;20737;-74
2023/11/22 08:21:01;;;;;;;8.40;3.95;;;;;;;;;;5041783;28;20068;-74
2023/11/22 08:23:32;;;;;;;13.60;4.80;;;;;;;;;;5042490;28;20052;-75
2023/11/22 08:26:04;;;;;;;8.77;4.25;;;;;;;;;;5040510;28;20060;-74
2023/11/22 08:28:36;;;;;;;8.85;4.60;;;;;;;;;;5040957;28;20412;-74
2023/11/22 08:31:09;;;;;;;9.55;4.28;;;;;;;;;;5042598;28;20097;-74
2023/11/22 08:33:40;;;;;;;7.57;3.85;;;;;;;;;;5045355;28;20049;-74
2023/11/22 08:36:10;;;;;;;9.02;3.75;;;;;;;;;;5045698;28;20048;-74
2023/11/22 08:38:43;;;;;;;7.95;4.13;;;;;;;;;;5045157;28;20508;-74
2023/11/22 08:41:13;;;;;;;11.10;4.75;;;;;;;;;;5044084;28;20393;-74
2023/11/22 08:43:43;;;;;;;10.55;4.15;;;;;;;;;;5045279;28;20495;-74
2023/11/22 08:46:14;;;;;;;9.60;4.35;;;;;;;;;;5044587;28;20045;-74
2023/11/22 08:48:45;;;;;;;8.60;3.88;;;;;;;;;;5044507;28;20052;-73
2023/11/22 08:51:15;;;;;;;10.15;4.20;;;;;;;;;;5045199;28;20152;-73
2023/11/22 08:53:45;;;;;;;8.70;3.67;;;;;;;;;;5045039;28;20357;-73
2023/11/22 08:56:16;;;;;;;11.85;4.00;;;;;;;;;;5044872;28;20049;-72
2023/11/22 08:58:46;;;;;;;13.70;3.88;;;;;;;;;;5044902;28;20045;-74
2023/11/22 09:01:18;;;;;;;13.90;4.25;;;;;;;;;;5044451;28;20051;-74
2023/11/22 09:03:50;;;;;;;11.55;4.25;;;;;;;;;;5044611;28;20416;-74
2023/11/22 09:06:20;;;;;;;7.88;3.55;;;;;;;;;;5044627;28;20048;-73
2023/11/22 09:08:51;;;;;;;14.43;3.83;;;;;;;;;;5044709;28;20052;-73
2023/11/22 09:11:22;;;;;;;11.48;4.10;;;;;;;;;;5044242;28;20427;-73
2023/11/22 09:13:56;;;;;;;17.50;3.50;;;;;;;;;;5044155;28;20057;-73
2023/11/22 09:16:27;;;;;;;14.18;3.92;;;;;;;;;;5045141;28;20041;-74
2023/11/22 09:18:57;;;;;;;8.55;3.60;;;;;;;;;;5045600;28;20049;-75
2023/11/22 09:21:29;;;;;;;12.77;3.65;;;;;;;;;;5043886;28;20057;-73
2023/11/22 09:24:00;;;;;;;7.90;3.20;;;;;;;;;;5043960;28;20049;-76
2023/11/22 09:26:30;;;;;;;9.75;2.83;;;;;;;;;;5044101;28;20051;-77
2023/11/22 09:29:01;;;;;;;12.68;3.35;;;;;;;;;;5043721;28;20049;-75
2023/11/22 09:31:32;;;;;;;13.73;3.42;;;;;;;;;;5044094;28;20045;-74
2023/11/22 09:34:03;;;;;;;9.25;3.10;;;;;;;;;;5044163;28;20049;-73
2023/11/22 09:36:34;;;;;;;11.32;3.17;;;;;;;;;;5043351;28;20060;-74
2023/11/22 09:39:08;;;;;;;12.57;3.22;;;;;;;;;;5043604;28;20041;-73
2023/11/22 09:41:39;;;;;;;13.93;4.22;;;;;;;;;;5042295;28;20389;-78
2023/11/22 09:44:11;;;;;;;12.20;4.18;;;;;;;;;;5043849;28;20041;-74
2023/11/22 09:46:42;;;;;;;13.30;3.88;;;;;;;;;;5044087;28;20431;-73
2023/11/22 09:49:22;;;;;;;14.48;4.53;;;;;;;;;;5044539;28;20384;-73
2023/11/22 09:51:56;;;;;;;12.07;3.05;;;;;;;;;;5043826;28;20057;-74
2023/11/22 09:54:29;;;;;;;14.30;3.53;;;;;;;;;;5042631;28;20056;-74
2023/11/22 09:57:02;;;;;;;14.63;4.38;;;;;;;;;;5043259;28;20056;-74
2023/11/22 09:59:33;;;;;;;14.57;4.18;;;;;;;;;;5043935;28;20056;-78
2023/11/22 10:02:06;;;;;;;19.13;4.55;;;;;;;;;;5043330;28;20041;-73
2023/11/22 10:04:38;;;;;;;15.15;3.90;;;;;;;;;;5043253;28;20057;-72
2023/11/22 10:07:09;;;;;;;9.85;3.67;;;;;;;;;;5042340;28;20051;-74
2023/11/22 10:09:41;;;;;;;17.30;4.15;;;;;;;;;;5043430;28;20047;-75
2023/11/22 10:12:14;;;;;;;14.57;3.95;;;;;;;;;;5042889;28;20060;-74
2023/11/22 10:14:46;;;;;;;13.27;3.88;;;;;;;;;;5043045;28;20059;-73
2023/11/22 10:17:16;;;;;;;15.25;4.53;;;;;;;;;;5043653;28;20518;-74
2023/11/22 10:19:46;;;;;;;11.73;4.32;;;;;;;;;;5043455;28;20045;-74
2023/11/22 10:22:18;;;;;;;17.75;4.70;;;;;;;;;;5043384;28;20045;-78
2023/11/22 10:24:48;;;;;;;31.50;4.65;;;;;;;;;;5043289;28;20400;-76
2023/11/22 10:27:19;;;;;;;11.35;3.90;;;;;;;;;;5042693;28;20092;-73
2023/11/22 10:29:50;;;;;;;14.90;4.18;;;;;;;;;;5043760;28;20053;-74
2023/11/22 10:32:22;;;;;;;18.10;4.20;;;;;;;;;;5043205;28;20044;-75
2023/11/22 10:34:55;;;;;;;20.38;3.80;;;;;;;;;;5042924;28;20064;-75
2023/11/22 10:37:26;;;;;;;15.18;4.32;;;;;;;;;;5042768;28;20508;-73
2023/11/22 10:39:56;;;;;;;14.73;4.28;;;;;;;;;;5042751;28;20060;-77
2023/11/22 10:42:27;;;;;;;12.23;3.92;;;;;;;;;;5042562;28;20064;-77
2023/11/22 10:45:03;;;;;;;15.85;4.15;;;;;;;;;;5042746;28;20504;-74
2023/11/22 10:47:38;;;;;;;12.55;4.00;;;;;;;;;;5043040;28;20048;-72
2023/11/22 10:50:10;;;;;;;16.75;4.40;;;;;;;;;;5042482;28;20531;-72
2023/11/22 10:52:43;;;;;;;16.17;5.68;;;;;;;;;;5042599;28;20059;-80
2023/11/22 10:55:17;;;;;;;19.95;5.20;;;;;;;;;;5042303;28;20792;-74
2023/11/22 10:57:51;;;;;;;11.55;4.60;;;;;;;;;;5042195;28;20725;-76
2023/11/22 11:00:27;;;;;;;25.77;4.97;;;;;;;;;;5043505;28;20527;-75
2023/11/22 11:03:04;;;;;;;15.45;3.80;;;;;;;;;;5042783;28;20052;-73
2023/11/22 11:05:38;;;;;;;19.98;4.82;;;;;;;;;;5042233;28;20044;-72
2023/11/22 11:08:12;;;;;;;9.43;4.00;;;;;;;;;;5042677;28;20522;-74
2023/11/22 11:10:44;;;;;;;15.63;4.13;;;;;;;;;;5042475;28;20468;-77
2023/11/22 11:13:15;;;;;;;17.63;4.05;;;;;;;;;;5040783;28;20339;-78
2023/11/22 11:15:47;;;;;;;14.75;4.57;;;;;;;;;;5042569;28;20040;-74
2023/11/22 11:18:18;;;;;;;15.38;3.95;;;;;;;;;;5042557;28;20048;-73
2023/11/22 11:20:56;;;;;;;15.18;4.57;;;;;;;;;;5042389;28;20045;-73
2023/11/22 11:23:31;;;;;;;17.17;4.28;;;;;;;;;;5042227;28;20048;-74
2023/11/22 11:26:16;;;;;;;11.02;4.00;;;;;;;;;;5041040;28;20053;-74
2023/11/22 11:28:48;;;;;;;19.08;4.40;;;;;;;;;;5041896;28;20045;-73
2023/11/22 11:31:23;;;;;;;16.50;4.13;;;;;;;;;;5042304;28;20049;-74
2023/11/22 11:33:59;;;;;;;16.98;4.20;;;;;;;;;;5041912;28;20523;-82
2023/11/22 11:36:37;;;;;;;17.63;4.38;;;;;;;;;;5041859;28;20041;-77
2023/11/22 11:39:14;;;;;;;20.10;4.50;;;;;;;;;;5042689;28;20049;-77
2023/11/22 11:41:47;;;;;;;9.43;3.92;;;;;;;;;;5042287;28;20083;-74
2023/11/22 11:44:19;;;;;;;16.58;4.00;;;;;;;;;;5042363;28;20053;-73
2023/11/22 11:46:54;;;;;;;25.42;4.45;;;;;;;;;;5040636;28;20049;-73
2023/11/22 11:49:25;;;;;;;;;;;;;;;;;;5042645;28;20048;-74
2023/11/22 11:51:54;;;;;;;13.35;3.88;;;;;;;;;;5040779;28;19936;-74
2023/11/22 11:54:25;;;;;;;10.65;3.63;;;;;;;;;;5041923;28;20076;-75
2023/11/22 11:57:00;;;;;;;14.00;3.75;;;;;;;;;;5040435;28;20060;-73
2023/11/22 11:59:32;;;;;;;12.07;3.85;;;;;;;;;;5041821;28;20045;-74
2023/11/22 12:02:05;;;;;;;12.45;4.55;;;;;;;;;;5041369;28;20411;-77
2023/11/22 12:04:36;;;;;;;14.13;3.65;;;;;;;;;;5042455;28;20052;-75
2023/11/22 12:07:09;;;;;;;12.75;3.97;;;;;;;;;;5045561;28;20523;-74
2023/11/22 12:09:40;;;;;;;14.27;3.55;;;;;;;;;;5046180;28;20526;-74
2023/11/22 12:12:10;;;;;;;8.80;3.67;;;;;;;;;;5045919;28;20041;-74
2023/11/22 12:14:43;;;;;;;11.15;3.80;;;;;;;;;;5046240;28;20602;-74
2023/11/22 12:17:14;;;;;;;10.88;3.55;;;;;;;;;;5045739;28;20040;-74
2023/11/22 12:19:46;;;;;;;8.95;3.63;;;;;;;;;;5045011;28;20052;-74
2023/11/22 12:22:16;;;;;;;8.50;3.80;;;;;;;;;;5043540;28;20060;-74
2023/11/22 12:24:46;;;;;;;14.20;3.80;;;;;;;;;;5045132;28;20508;-78
2023/11/22 12:27:18;;;;;;;12.88;3.53;;;;;;;;;;5045238;28;20045;-75
2023/11/22 12:29:49;;;;;;;11.77;3.20;;;;;;;;;;5045121;28;21057;-75
2023/11/22 12:32:25;;;;;;;8.23;3.47;;;;;;;;;;5044994;28;20045;-73
2023/11/22 12:34:56;;;;;;;11.82;3.38;;;;;;;;;;5044956;28;20037;-74
2023/11/22 12:37:29;;;;;;;10.18;3.33;;;;;;;;;;5044450;28;20056;-75
2023/11/22 12:40:10;;;;;;;12.38;3.47;;;;;;;;;;5043881;28;20045;-73
2023/11/22 12:42:53;;;;;;;10.73;3.60;;;;;;;;;;5043797;28;20071;-74
2023/11/22 12:45:24;;;;;;;11.98;3.90;;;;;;;;;;5045353;28;20055;-75
2023/11/22 12:47:59;;;;;;;12.20;3.30;;;;;;;;;;5044842;28;20044;-76
2023/11/22 12:50:38;;;;;;;11.20;3.50;;;;;;;;;;5044408;28;20049;-74
2023/11/22 12:53:13;;;;;;;10.77;3.17;;;;;;;;;;5044727;28;20041;-75
2023/11/22 12:55:46;;;;;;;10.00;3.22;;;;;;;;;;5043364;28;20052;-77
2023/11/22 12:58:18;;;;;;;14.27;3.95;;;;;;;;;;5044691;28;20072;-76
2023/11/22 13:00:54;;;;;;;12.77;3.63;;;;;;;;;;5044392;28;20041;-73
2023/11/22 13:03:28;;;;;;;13.88;3.55;;;;;;;;;;5044380;28;20389;-75
2023/11/22 13:05:59;;;;;;;12.55;3.25;;;;;;;;;;5044467;28;20055;-74
2023/11/22 13:08:31;;;;;;;12.85;2.92;;;;;;;;;;5044807;28;20053;-74
2023/11/22 13:11:01;;;;;;;11.02;3.50;;;;;;;;;;5044465;28;20511;-74
2023/11/22 13:13:31;;;;;;;9.70;3.08;;;;;;;;;;5044724;28;20049;-74
2023/11/22 13:16:01;;;;;;;17.10;3.40;;;;;;;;;;5043685;28;20048;-73
2023/11/22 13:18:32;;;;;;;10.40;3.08;;;;;;;;;;5044647;28;20056;-76
2023/11/22 13:21:05;;;;;;;14.35;3.33;;;;;;;;;;5044347;28;20084;-74
2023/11/22 13:23:35;;;;;;;10.65;2.72;;;;;;;;;;5044267;28;20052;-73
2023/11/22 13:26:09;;;;;;;10.48;2.75;;;;;;;;;;5043941;28;20060;-75
2023/11/22 13:28:42;;;;;;;9.45;2.33;;;;;;;;;;5043984;28;20055;-72
2023/11/22 13:31:12;;;;;;;12.80;2.90;;;;;;;;;;5044099;28;20052;-75
2023/11/22 13:33:43;;;;;;;8.15;2.60;;;;;;;;;;5044454;28;20053;-79
2023/11/22 13:36:14;;;;;;;13.38;2.75;;;;;;;;;;5043828;28;20044;-75
2023/11/22 13:38:45;;;;;;;14.45;3.10;;;;;;;;;;5043576;28;20056;-73
2023/11/22 13:41:16;;;;;;;12.57;2.45;;;;;;;;;;5044451;28;20044;-75
2023/11/22 13:43:48;;;;;;;11.13;2.90;;;;;;;;;;5043516;28;20053;-73
2023/11/22 13:46:18;;;;;;;12.05;2.53;;;;;;;;;;5043677;28;20562;-75
2023/11/22 13:48:49;;;;;;;8.45;2.58;;;;;;;;;;5043545;28;20056;-73
2023/11/22 13:51:20;;;;;;;10.77;2.58;;;;;;;;;;5043863;28;20052;-75
2023/11/22 13:53:53;;;;;;;12.57;3.33;;;;;;;;;;5043707;28;20045;-75
2023/11/22 13:56:23;;;;;;;7.63;2.65;;;;;;;;;;5043745;28;20048;-75
2023/11/22 13:58:53;;;;;;;6.10;2.40;;;;;;;;;;5043644;28;20045;-73
2023/11/22 14:01:26;;;;;;;9.50;2.60;;;;;;;;;;5043361;28;20394;-74
2023/11/22 14:03:56;;;;;;;10.27;2.78;;;;;;;;;;5043150;28;20060;-75
2023/11/22 14:06:27;;;;;;;11.10;2.67;;;;;;;;;;5043668;28;20041;-74
2023/11/22 14:08:59;;;;;;;7.65;2.55;;;;;;;;;;5044039;28;20045;-75
2023/11/22 14:11:31;;;;;;;11.73;2.58;;;;;;;;;;5025665;28;20048;-72
2023/11/22 14:14:03;;;;;;;9.43;2.42;;;;;;;;;;5043683;28;20048;-73
2023/11/22 14:16:35;;;;;;;7.90;2.58;;;;;;;;;;5042564;28;20041;-74
2023/11/22 14:19:06;;;;;;;6.72;2.17;;;;;;;;;;5043113;28;20047;-74
2023/11/22 14:21:36;;;;;;;13.38;2.90;;;;;;;;;;5042104;28;20439;-73
2023/11/22 14:24:08;;;;;;;11.35;2.95;;;;;;;;;;5042235;28;20056;-73
2023/11/22 14:26:39;;;;;;;10.40;2.40;;;;;;;;;;5043475;28;20067;-75
2023/11/22 14:29:09;;;;;;;10.77;2.97;;;;;;;;;;5042677;28;20057;-78
2023/11/22 14:31:41;;;;;;;12.00;3.15;;;;;;;;;;5043019;28;20496;-76
2023/11/22 14:34:12;;;;;;;17.63;4.00;;;;;;;;;;5043195;28;20049;-73
2023/11/22 14:36:44;;;;;;;14.82;2.90;;;;;;;;;;5042592;28;20069;-76
2023/11/22 14:39:16;;;;;;;18.85;3.70;;;;;;;;;;5043070;28;20071;-76
2023/11/22 14:41:51;;;;;;;14.55;3.03;;;;;;;;;;5042978;28;20045;-76
2023/11/22 14:44:24;;;;;;;11.30;3.42;;;;;;;;;;5042752;28;20052;-75
2023/11/22 14:46:54;;;;;;;11.48;3.42;;;;;;;;;;5042409;28;20530;-74
2023/11/22 14:49:25;;;;;;;10.23;3.30;;;;;;;;;;5043009;28;20084;-74
2023/11/22 14:51:58;;;;;;;11.43;3.90;;;;;;;;;;5042023;28;20415;-72
2023/11/22 14:54:29;;;;;;;14.13;4.07;;;;;;;;;;5041209;28;20057;-75
2023/11/22 14:57:01;;;;;;;15.23;4.35;;;;;;;;;;5042881;28;20045;-74
2023/11/22 14:59:33;;;;;;;17.00;4.05;;;;;;;;;;5041427;28;20052;-77
2023/11/22 15:02:11;;;;;;;10.13;3.83;;;;;;;;;;5042552;28;20037;-74
2023/11/22 15:04:47;;;;;;;13.23;4.18;;;;;;;;;;5040883;28;20063;-76